Time;durP1;ratioP1;P1;durP2;ratioP2;P2;SDS_P1;SDS_P2;PMS_P1;PMS_P2;Temp;Humidity;BMP_temperature;BMP_pressure;BME280_temperature;BME280_humidity;BME280_pressure;Samples;Min_cycle;Max_cycle;Signal;HPM_P1;HPM_P2
2023/03/19 05:01:35;;;;;;;1999.90;999.90;;;;;;;;;;5594232;23;20661;-71
2023/03/19 05:04:20;;;;;;;1999.90;999.90;;;;;;;;;;4936210;29;20234;-69
2023/03/19 05:07:05;;;;;;;1999.90;999.90;;;;;;;;;;4935326;29;20209;-71
2023/03/19 05:09:49;;;;;;;1999.90;999.90;;;;;;;;;;4918330;29;20218;-71
2023/03/19 05:12:34;;;;;;;1999.90;999.90;;;;;;;;;;4918568;29;20316;-71
2023/03/19 05:15:19;;;;;;;1999.90;999.90;;;;;;;;;;4918021;29;20794;-71
2023/03/19 05:18:06;;;;;;;1999.90;999.90;;;;;;;;;;4918579;29;20219;-71
2023/03/19 05:20:52;;;;;;;1999.90;999.90;;;;;;;;;;4930375;29;20287;-72
2023/03/19 05:23:37;;;;;;;1999.90;999.90;;;;;;;;;;4935528;29;20293;-71
2023/03/19 05:26:22;;;;;;;1999.90;999.90;;;;;;;;;;4934175;29;20233;-68
2023/03/19 05:29:09;;;;;;;1999.90;999.90;;;;;;;;;;4933883;29;20423;-70
2023/03/19 05:31:54;;;;;;;1999.90;999.90;;;;;;;;;;4917804;29;20237;-71
2023/03/19 05:34:40;;;;;;;1999.90;999.90;;;;;;;;;;4918564;29;20294;-71
2023/03/19 05:37:25;;;;;;;1999.90;999.90;;;;;;;;;;4921875;29;20227;-72
2023/03/19 05:40:12;;;;;;;1999.90;999.90;;;;;;;;;;4935794;29;20217;-72
2023/03/19 05:42:57;;;;;;;1999.90;999.90;;;;;;;;;;4932841;29;20685;-72
2023/03/19 05:45:42;;;;;;;1999.90;999.90;;;;;;;;;;4936276;29;20245;-71
2023/03/19 05:48:27;;;;;;;1999.90;999.90;;;;;;;;;;4936608;29;20770;-71
2023/03/19 05:51:13;;;;;;;1999.90;999.90;;;;;;;;;;4936750;29;20285;-71
2023/03/19 05:53:58;;;;;;;1999.90;999.90;;;;;;;;;;4937026;29;20293;-70
2023/03/19 05:56:43;;;;;;;1999.90;999.90;;;;;;;;;;4936728;29;20344;-70
2023/03/19 05:59:28;;;;;;;1999.90;999.90;;;;;;;;;;4935912;29;20414;-70
2023/03/19 06:02:13;;;;;;;1999.90;999.90;;;;;;;;;;4936740;29;20273;-70
2023/03/19 06:04:58;;;;;;;1999.90;999.90;;;;;;;;;;4936727;29;20254;-70
2023/03/19 06:07:44;;;;;;;1999.90;999.90;;;;;;;;;;4936809;29;20578;-70
2023/03/19 06:10:29;;;;;;;1999.90;999.90;;;;;;;;;;4936473;29;20213;-71
2023/03/19 06:13:13;;;;;;;1999.90;999.90;;;;;;;;;;4934960;29;25105;-71
2023/03/19 06:15:59;;;;;;;1999.90;999.90;;;;;;;;;;4935787;29;20262;-71
2023/03/19 06:18:44;;;;;;;1999.90;999.90;;;;;;;;;;4936261;29;20475;-69
2023/03/19 06:21:30;;;;;;;1999.90;999.90;;;;;;;;;;4936419;29;20359;-71
2023/03/19 06:24:16;;;;;;;1999.90;999.90;;;;;;;;;;4936592;29;20212;-71
2023/03/19 06:27:01;;;;;;;1999.90;999.90;;;;;;;;;;4936160;29;20201;-70
2023/03/19 06:29:46;;;;;;;1999.90;999.90;;;;;;;;;;4936020;29;20207;-71
2023/03/19 06:32:31;;;;;;;1999.90;999.90;;;;;;;;;;4936048;29;20223;-72
2023/03/19 06:35:16;;;;;;;1999.90;999.90;;;;;;;;;;4936078;29;20217;-71
2023/03/19 06:38:01;;;;;;;1999.90;999.90;;;;;;;;;;4935992;29;20581;-71
2023/03/19 06:40:48;;;;;;;1999.90;999.90;;;;;;;;;;4935815;29;20239;-71
2023/03/19 06:43:35;;;;;;;1999.90;999.90;;;;;;;;;;4935940;29;20205;-71
2023/03/19 06:46:21;;;;;;;1999.90;999.90;;;;;;;;;;4935593;29;20269;-70
2023/03/19 06:49:06;;;;;;;1999.90;999.90;;;;;;;;;;4935713;29;20341;-71
2023/03/19 06:51:51;;;;;;;1999.90;999.90;;;;;;;;;;4935949;29;20307;-70
2023/03/19 06:54:35;;;;;;;1999.90;999.90;;;;;;;;;;4935767;29;20240;-70
2023/03/19 06:57:21;;;;;;;1999.90;999.90;;;;;;;;;;4934665;29;20418;-71
2023/03/19 07:00:09;;;;;;;1999.90;999.90;;;;;;;;;;4935549;29;20221;-71
2023/03/19 07:02:54;;;;;;;1999.90;999.90;;;;;;;;;;4930855;29;20288;-70
2023/03/19 07:05:39;;;;;;;1999.90;999.90;;;;;;;;;;4929403;29;20302;-71
2023/03/19 07:08:28;;;;;;;1999.90;999.90;;;;;;;;;;4931749;29;20218;-71
2023/03/19 07:11:13;;;;;;;1999.90;999.90;;;;;;;;;;4929031;29;20730;-71
2023/03/19 07:13:59;;;;;;;1999.90;999.90;;;;;;;;;;4916679;29;20248;-72
2023/03/19 07:16:44;;;;;;;1999.90;999.90;;;;;;;;;;4932373;29;20258;-72
2023/03/19 07:19:29;;;;;;;1999.90;999.90;;;;;;;;;;4935209;29;20649;-72
2023/03/19 07:22:14;;;;;;;1999.90;999.90;;;;;;;;;;4935196;29;20408;-71
2023/03/19 07:25:00;;;;;;;1999.90;999.90;;;;;;;;;;4933999;29;20712;-71
2023/03/19 07:27:45;;;;;;;1999.90;999.90;;;;;;;;;;4930376;29;20570;-72
2023/03/19 07:30:31;;;;;;;1999.90;999.90;;;;;;;;;;4929554;29;20706;-70
2023/03/19 07:33:16;;;;;;;1999.90;999.90;;;;;;;;;;4921721;29;20216;-71
2023/03/19 07:36:01;;;;;;;1999.90;999.90;;;;;;;;;;4927422;29;20708;-73
2023/03/19 07:38:46;;;;;;;1999.90;999.90;;;;;;;;;;4923416;29;20454;-70
2023/03/19 07:41:31;;;;;;;1999.90;999.90;;;;;;;;;;4930492;29;20237;-71
2023/03/19 07:44:16;;;;;;;1999.90;999.90;;;;;;;;;;4929327;29;20240;-72
2023/03/19 07:47:02;;;;;;;1999.90;999.90;;;;;;;;;;4931699;29;20241;-73
2023/03/19 07:49:47;;;;;;;1999.90;999.90;;;;;;;;;;4928042;29;20220;-70
2023/03/19 07:52:32;;;;;;;1999.90;999.90;;;;;;;;;;4926860;29;20234;-71
2023/03/19 07:55:17;;;;;;;1999.90;999.90;;;;;;;;;;4929415;29;20312;-71
2023/03/19 07:58:02;;;;;;;1999.90;999.90;;;;;;;;;;4933234;29;20699;-71
2023/03/19 08:00:47;;;;;;;1999.90;999.90;;;;;;;;;;4934245;29;20299;-70
2023/03/19 08:03:33;;;;;;;1999.90;999.90;;;;;;;;;;4933205;29;20224;-72
2023/03/19 08:06:19;;;;;;;1999.90;999.90;;;;;;;;;;4926912;29;20232;-72
2023/03/19 08:09:04;;;;;;;1999.90;999.90;;;;;;;;;;4923998;29;20208;-71
2023/03/19 08:11:49;;;;;;;1999.90;999.90;;;;;;;;;;4927100;29;20469;-71
2023/03/19 08:14:33;;;;;;;1999.90;999.90;;;;;;;;;;4925180;29;20213;-72
2023/03/19 08:17:18;;;;;;;1999.90;999.90;;;;;;;;;;4928704;29;20597;-72
2023/03/19 08:20:07;;;;;;;1999.90;999.90;;;;;;;;;;4929487;29;20221;-71
2023/03/19 08:22:52;;;;;;;1999.90;999.90;;;;;;;;;;4934488;29;20423;-71
2023/03/19 08:25:37;;;;;;;1999.90;999.90;;;;;;;;;;4926273;29;20286;-70
2023/03/19 08:28:22;;;;;;;1999.90;999.90;;;;;;;;;;4932819;29;20219;-71
2023/03/19 08:31:08;;;;;;;1999.90;999.90;;;;;;;;;;4929746;29;20237;-71
2023/03/19 08:33:54;;;;;;;1999.90;999.90;;;;;;;;;;4933434;29;20209;-71
2023/03/19 08:36:40;;;;;;;1999.90;999.90;;;;;;;;;;4933793;29;20214;-70
2023/03/19 08:39:26;;;;;;;1999.90;999.90;;;;;;;;;;4934956;29;20329;-71
2023/03/19 08:42:11;;;;;;;1999.90;999.90;;;;;;;;;;4931495;29;20545;-70
2023/03/19 08:44:56;;;;;;;1999.90;999.90;;;;;;;;;;4937138;29;20277;-71
2023/03/19 08:47:41;;;;;;;1999.90;999.90;;;;;;;;;;4937691;29;20341;-71
2023/03/19 08:50:26;;;;;;;1999.90;999.90;;;;;;;;;;4932089;29;20588;-71
2023/03/19 08:53:13;;;;;;;1999.90;999.90;;;;;;;;;;4931499;29;20241;-71
2023/03/19 08:55:58;;;;;;;1999.90;999.90;;;;;;;;;;4938827;29;20535;-71
2023/03/19 08:58:44;;;;;;;1999.90;999.90;;;;;;;;;;4936823;29;20217;-71
2023/03/19 09:01:29;;;;;;;1999.90;999.90;;;;;;;;;;4935571;29;20248;-71
2023/03/19 09:04:14;;;;;;;1999.90;999.90;;;;;;;;;;4937259;29;20221;-71
2023/03/19 09:06:59;;;;;;;1999.90;999.90;;;;;;;;;;4932310;29;20731;-71
2023/03/19 09:09:46;;;;;;;1999.90;999.90;;;;;;;;;;4930093;29;20442;-72
2023/03/19 09:12:31;;;;;;;1999.90;999.90;;;;;;;;;;4935383;29;20247;-71
2023/03/19 09:15:17;;;;;;;1999.90;999.90;;;;;;;;;;4929970;29;20265;-71
2023/03/19 09:18:01;;;;;;;1999.90;999.90;;;;;;;;;;4936921;29;20209;-71
2023/03/19 09:20:46;;;;;;;1999.90;999.90;;;;;;;;;;4935774;29;20793;-70
2023/03/19 09:23:31;;;;;;;1999.90;999.90;;;;;;;;;;4937271;29;20220;-71
2023/03/19 09:26:18;;;;;;;1999.90;999.90;;;;;;;;;;4930321;29;20601;-71
2023/03/19 09:29:03;;;;;;;1999.90;999.90;;;;;;;;;;4930686;29;20610;-73
2023/03/19 09:31:49;;;;;;;1999.90;999.90;;;;;;;;;;4935153;29;20290;-73
2023/03/19 09:34:34;;;;;;;1999.90;999.90;;;;;;;;;;4930000;29;20229;-71
2023/03/19 09:37:19;;;;;;;1999.90;999.90;;;;;;;;;;4933567;29;20594;-71
2023/03/19 09:40:04;;;;;;;1999.90;999.90;;;;;;;;;;4928891;29;20544;-71
2023/03/19 09:42:58;;;;;;;1999.90;999.90;;;;;;;;;;4933133;29;20584;-71
2023/03/19 09:45:44;;;;;;;1999.90;999.90;;;;;;;;;;4933260;29;20712;-72
2023/03/19 09:48:31;;;;;;;1999.90;999.90;;;;;;;;;;4936829;29;20213;-72
2023/03/19 09:51:19;;;;;;;1999.90;999.90;;;;;;;;;;4938784;29;20311;-72
2023/03/19 09:54:07;;;;;;;1999.90;999.90;;;;;;;;;;4929674;29;20473;-71
2023/03/19 09:56:52;;;;;;;1999.90;999.90;;;;;;;;;;4936555;29;20206;-71
2023/03/19 09:59:39;;;;;;;1999.90;999.90;;;;;;;;;;4936699;29;20734;-71
2023/03/19 10:02:29;;;;;;;1999.90;999.90;;;;;;;;;;4932404;29;20265;-71
2023/03/19 10:05:21;;;;;;;1999.90;999.90;;;;;;;;;;4930449;29;20217;-73
2023/03/19 10:08:19;;;;;;;1999.90;999.90;;;;;;;;;;4926777;29;20606;-71
2023/03/19 10:11:08;;;;;;;1999.90;999.90;;;;;;;;;;4927973;29;20237;-71
2023/03/19 10:13:59;;;;;;;1999.90;999.90;;;;;;;;;;4927439;29;20214;-72
2023/03/19 10:16:47;;;;;;;1999.90;999.90;;;;;;;;;;4929756;29;20333;-71
2023/03/19 10:19:39;;;;;;;1999.90;999.90;;;;;;;;;;4930771;29;20221;-72
2023/03/19 10:22:26;;;;;;;1999.90;999.90;;;;;;;;;;4930623;29;20225;-72
2023/03/19 10:25:12;;;;;;;1999.90;999.90;;;;;;;;;;4926596;29;20217;-72
2023/03/19 10:28:00;;;;;;;1999.90;999.90;;;;;;;;;;4931342;29;20598;-71
2023/03/19 10:30:49;;;;;;;1999.90;999.90;;;;;;;;;;4929763;29;20713;-72
2023/03/19 10:33:42;;;;;;;1999.90;999.90;;;;;;;;;;4929545;29;20213;-72
2023/03/19 10:36:30;;;;;;;1999.90;999.90;;;;;;;;;;4930488;29;20749;-71
2023/03/19 10:39:16;;;;;;;1999.90;999.90;;;;;;;;;;4928739;29;20449;-72
2023/03/19 10:42:20;;;;;;;1999.90;999.90;;;;;;;;;;4930055;29;20269;-73
2023/03/19 10:45:10;;;;;;;1999.90;999.90;;;;;;;;;;4933490;29;20217;-72
2023/03/19 10:47:56;;;;;;;1999.90;999.90;;;;;;;;;;4929642;29;20237;-73
2023/03/19 10:50:48;;;;;;;1999.90;999.90;;;;;;;;;;4928646;29;20229;-73
2023/03/19 10:53:34;;;;;;;1999.90;999.90;;;;;;;;;;4931064;29;20213;-73
2023/03/19 10:56:21;;;;;;;1999.90;999.90;;;;;;;;;;4935738;29;20617;-73
2023/03/19 10:59:20;;;;;;;1999.90;999.90;;;;;;;;;;4935509;29;20271;-73
2023/03/19 11:02:15;;;;;;;1999.90;999.90;;;;;;;;;;4928816;29;20292;-73
2023/03/19 11:05:08;;;;;;;1999.90;999.90;;;;;;;;;;4935626;29;20583;-73
2023/03/19 11:07:59;;;;;;;1999.90;999.90;;;;;;;;;;4935203;29;20237;-73
2023/03/19 11:10:46;;;;;;;1999.90;999.90;;;;;;;;;;4935420;29;20237;-72
2023/03/19 11:13:33;;;;;;;1999.90;999.90;;;;;;;;;;4929435;29;20220;-73
2023/03/19 11:16:19;;;;;;;1999.90;999.90;;;;;;;;;;4926975;29;20214;-72
2023/03/19 11:19:15;;;;;;;1999.90;999.90;;;;;;;;;;4934375;29;20754;-73
2023/03/19 11:22:03;;;;;;;1999.90;999.90;;;;;;;;;;4933889;29;20406;-73
2023/03/19 11:24:51;;;;;;;1999.90;999.90;;;;;;;;;;4928873;29;20257;-73
2023/03/19 11:27:36;;;;;;;1999.90;999.90;;;;;;;;;;4934902;29;20221;-73
2023/03/19 11:30:21;;;;;;;1999.90;999.90;;;;;;;;;;4935166;29;20221;-73
2023/03/19 11:33:37;;;;;;;1999.90;999.90;;;;;;;;;;4934807;29;20253;-73
2023/03/19 11:36:25;;;;;;;1999.90;999.90;;;;;;;;;;4928424;29;20209;-73
2023/03/19 11:39:15;;;;;;;1999.90;999.90;;;;;;;;;;4931714;29;20585;-73
2023/03/19 11:42:11;;;;;;;1999.90;999.90;;;;;;;;;;4931443;29;20301;-74
2023/03/19 11:45:01;;;;;;;1999.90;999.90;;;;;;;;;;4932577;29;20238;-73
2023/03/19 11:47:50;;;;;;;1999.90;999.90;;;;;;;;;;4934520;29;20606;-73
2023/03/19 11:50:39;;;;;;;1999.90;999.90;;;;;;;;;;4914799;29;20501;-73
2023/03/19 11:53:27;;;;;;;1999.90;999.90;;;;;;;;;;4915566;29;20594;-73
2023/03/19 11:56:16;;;;;;;1999.90;999.90;;;;;;;;;;4935588;29;20337;-73
2023/03/19 11:59:22;;;;;;;1999.90;999.90;;;;;;;;;;4934496;29;20370;-73
2023/03/19 12:02:34;;;;;;;1999.90;999.90;;;;;;;;;;4933629;29;20299;-73
2023/03/19 12:05:23;;;;;;;1999.90;999.90;;;;;;;;;;4892710;29;20605;-72
2023/03/19 12:08:15;;;;;;;1999.90;999.90;;;;;;;;;;4928605;29;20309;-70
2023/03/19 12:11:10;;;;;;;1999.90;999.90;;;;;;;;;;4930485;29;20308;-72
2023/03/19 12:14:15;;;;;;;1999.90;999.90;;;;;;;;;;4930709;29;20258;-74
2023/03/19 12:17:07;;;;;;;1999.90;999.90;;;;;;;;;;4936717;29;20201;-72
2023/03/19 12:20:12;;;;;;;1999.90;999.90;;;;;;;;;;4933327;29;20310;-72
2023/03/19 12:23:04;;;;;;;1999.90;999.90;;;;;;;;;;4935547;29;20229;-74
2023/03/19 12:26:03;;;;;;;1999.90;999.90;;;;;;;;;;4935415;29;20218;-72
2023/03/19 12:28:52;;;;;;;1999.90;999.90;;;;;;;;;;4931021;29;20297;-72
2023/03/19 12:31:50;;;;;;;1999.90;999.90;;;;;;;;;;4936117;29;20618;-72
2023/03/19 12:34:40;;;;;;;1999.90;999.90;;;;;;;;;;4934461;29;20427;-72
2023/03/19 12:37:28;;;;;;;1999.90;999.90;;;;;;;;;;4935292;29;20213;-69
2023/03/19 12:40:16;;;;;;;1999.90;999.90;;;;;;;;;;4931778;29;20209;-71
2023/03/19 12:43:04;;;;;;;1999.90;999.90;;;;;;;;;;4933142;29;20714;-70
2023/03/19 12:45:50;;;;;;;1999.90;999.90;;;;;;;;;;4932071;29;20228;-71
2023/03/19 12:48:40;;;;;;;1999.90;999.90;;;;;;;;;;4934084;29;20757;-71
2023/03/19 12:51:30;;;;;;;1999.90;999.90;;;;;;;;;;4934950;29;20315;-71
2023/03/19 12:54:18;;;;;;;1999.90;999.90;;;;;;;;;;4935542;29;20225;-71
2023/03/19 12:57:06;;;;;;;1999.90;999.90;;;;;;;;;;4931228;29;20213;-71
2023/03/19 12:59:53;;;;;;;1999.90;999.90;;;;;;;;;;4932514;29;20341;-71
2023/03/19 13:02:40;;;;;;;1999.90;999.90;;;;;;;;;;4931313;29;20245;-72
2023/03/19 13:05:29;;;;;;;1999.90;999.90;;;;;;;;;;4931949;29;20205;-71
2023/03/19 13:08:19;;;;;;;1999.90;999.90;;;;;;;;;;4933585;29;20229;-72
2023/03/19 13:11:06;;;;;;;1999.90;999.90;;;;;;;;;;4933416;29;20626;-72
2023/03/19 13:13:54;;;;;;;1999.90;999.90;;;;;;;;;;4932808;29;20987;-70
2023/03/19 13:16:42;;;;;;;1999.90;999.90;;;;;;;;;;4933314;29;20405;-71
2023/03/19 13:19:31;;;;;;;1999.90;999.90;;;;;;;;;;4932360;29;20214;-72
2023/03/19 13:22:19;;;;;;;1999.90;999.90;;;;;;;;;;4927396;29;20733;-71
2023/03/19 13:25:07;;;;;;;1999.90;999.90;;;;;;;;;;4932740;29;20209;-71
2023/03/19 13:27:53;;;;;;;1999.90;999.90;;;;;;;;;;4934860;29;20311;-71
2023/03/19 13:30:41;;;;;;;1999.90;999.90;;;;;;;;;;4932942;29;20272;-72
2023/03/19 13:33:26;;;;;;;1999.90;999.90;;;;;;;;;;4935220;29;20209;-70
2023/03/19 13:36:13;;;;;;;1999.90;999.90;;;;;;;;;;4932212;29;20708;-71
2023/03/19 13:39:00;;;;;;;1999.90;999.90;;;;;;;;;;4933870;29;20204;-71
2023/03/19 13:42:07;;;;;;;1999.90;999.90;;;;;;;;;;4932942;29;20319;-72
2023/03/19 13:44:54;;;;;;;1999.90;999.90;;;;;;;;;;4933091;29;20966;-71
2023/03/19 13:47:42;;;;;;;1999.90;999.90;;;;;;;;;;4932656;29;20224;-69
2023/03/19 13:50:29;;;;;;;1999.90;999.90;;;;;;;;;;4932487;29;20578;-70
2023/03/19 13:53:38;;;;;;;1999.90;999.90;;;;;;;;;;4933052;29;20232;-72
2023/03/19 13:56:23;;;;;;;1999.90;999.90;;;;;;;;;;4924496;29;20218;-71
2023/03/19 13:59:22;;;;;;;1999.90;999.90;;;;;;;;;;4932290;29;20417;-71
2023/03/19 14:02:22;;;;;;;1999.90;999.90;;;;;;;;;;4931454;29;20264;-72
2023/03/19 14:05:15;;;;;;;1999.90;999.90;;;;;;;;;;4933337;29;20725;-70
2023/03/19 14:08:01;;;;;;;1999.90;999.90;;;;;;;;;;4933402;29;20213;-70
2023/03/19 14:10:47;;;;;;;1999.90;999.90;;;;;;;;;;4927523;29;20240;-71
2023/03/19 14:13:33;;;;;;;1999.90;999.90;;;;;;;;;;4930753;29;20963;-71
2023/03/19 14:16:24;;;;;;;1999.90;999.90;;;;;;;;;;4933565;29;20900;-71
2023/03/19 14:19:10;;;;;;;1999.90;999.90;;;;;;;;;;4933626;29;20586;-72
2023/03/19 14:22:08;;;;;;;1999.90;999.90;;;;;;;;;;4932477;29;20229;-72
2023/03/19 14:25:01;;;;;;;1999.90;999.90;;;;;;;;;;4931733;29;20689;-72
2023/03/19 14:27:48;;;;;;;1999.90;999.90;;;;;;;;;;4933372;29;20226;-72
2023/03/19 14:30:34;;;;;;;1999.90;999.90;;;;;;;;;;4932236;29;20220;-70
2023/03/19 14:33:24;;;;;;;1999.90;999.90;;;;;;;;;;4933044;29;20221;-71
2023/03/19 14:36:13;;;;;;;1999.90;999.90;;;;;;;;;;4932015;29;20221;-72
2023/03/19 14:38:59;;;;;;;1999.90;999.90;;;;;;;;;;4932875;29;20226;-71
2023/03/19 14:41:46;;;;;;;1999.90;999.90;;;;;;;;;;4933384;29;20333;-71
2023/03/19 14:44:45;;;;;;;1999.90;999.90;;;;;;;;;;4933461;29;20345;-72
2023/03/19 14:47:47;;;;;;;1999.90;999.90;;;;;;;;;;4932192;29;20807;-72
2023/03/19 14:50:41;;;;;;;1999.90;999.90;;;;;;;;;;4933990;29;20216;-71
2023/03/19 14:53:32;;;;;;;1999.90;999.90;;;;;;;;;;4935363;29;20206;-72
2023/03/19 14:56:20;;;;;;;1999.90;999.90;;;;;;;;;;4934902;29;20208;-70
2023/03/19 14:59:06;;;;;;;1999.90;999.90;;;;;;;;;;4935092;29;20310;-71
2023/03/19 15:01:52;;;;;;;1999.90;999.90;;;;;;;;;;4934915;29;20812;-71
2023/03/19 15:04:37;;;;;;;1999.90;999.90;;;;;;;;;;4931306;29;20213;-72
2023/03/19 15:07:25;;;;;;;1999.90;999.90;;;;;;;;;;4924289;29;20257;-71
2023/03/19 15:10:14;;;;;;;1999.90;999.90;;;;;;;;;;4924570;29;20451;-71
2023/03/19 15:13:12;;;;;;;1999.90;999.90;;;;;;;;;;4932241;29;20341;-71
2023/03/19 15:16:06;;;;;;;1999.90;999.90;;;;;;;;;;4917164;29;20318;-71
2023/03/19 15:18:52;;;;;;;1999.90;999.90;;;;;;;;;;4935937;29;20355;-72
2023/03/19 15:21:37;;;;;;;1999.90;999.90;;;;;;;;;;4929088;29;20265;-72
2023/03/19 15:24:23;;;;;;;1999.90;999.90;;;;;;;;;;4915121;29;20932;-72
2023/03/19 15:27:18;;;;;;;1999.90;999.90;;;;;;;;;;4916403;29;20213;-72
2023/03/19 15:30:04;;;;;;;1999.90;999.90;;;;;;;;;;4916261;29;20222;-71
2023/03/19 15:32:49;;;;;;;1999.90;999.90;;;;;;;;;;4915994;29;20205;-71
2023/03/19 15:35:36;;;;;;;1999.90;999.90;;;;;;;;;;4938152;29;20256;-71
2023/03/19 15:38:21;;;;;;;1999.90;999.90;;;;;;;;;;4934325;29;20208;-72
2023/03/19 15:41:08;;;;;;;1999.90;999.90;;;;;;;;;;4929734;29;20790;-72
2023/03/19 15:43:53;;;;;;;1999.90;999.90;;;;;;;;;;4930195;29;20702;-73
2023/03/19 15:46:40;;;;;;;1999.90;999.90;;;;;;;;;;4935017;29;20221;-72
2023/03/19 15:49:26;;;;;;;1999.90;999.90;;;;;;;;;;4934411;29;20237;-73
2023/03/19 15:52:12;;;;;;;1999.90;999.90;;;;;;;;;;4934717;29;20733;-72
2023/03/19 15:55:00;;;;;;;1999.90;999.90;;;;;;;;;;4934708;29;20277;-72
2023/03/19 15:57:47;;;;;;;1999.90;999.90;;;;;;;;;;4928852;29;20257;-72
2023/03/19 16:00:35;;;;;;;1999.90;999.90;;;;;;;;;;4929663;29;20216;-72
2023/03/19 16:03:21;;;;;;;1999.90;999.90;;;;;;;;;;4927929;29;20221;-73
2023/03/19 16:06:07;;;;;;;1999.90;999.90;;;;;;;;;;4929450;29;20664;-71
2023/03/19 16:08:53;;;;;;;1999.90;999.90;;;;;;;;;;4933615;29;20269;-72
2023/03/19 16:11:41;;;;;;;1999.90;999.90;;;;;;;;;;4925031;29;20237;-72
2023/03/19 16:14:31;;;;;;;1999.90;999.90;;;;;;;;;;4927329;29;20217;-72
2023/03/19 16:17:16;;;;;;;1999.90;999.90;;;;;;;;;;4927612;29;20296;-72
2023/03/19 16:20:02;;;;;;;1999.90;999.90;;;;;;;;;;4934383;29;20675;-72
2023/03/19 16:22:51;;;;;;;1999.90;999.90;;;;;;;;;;4929301;29;20572;-73
2023/03/19 16:25:36;;;;;;;1999.90;999.90;;;;;;;;;;4915804;29;20213;-74
2023/03/19 16:28:22;;;;;;;1999.90;999.90;;;;;;;;;;4935111;29;20361;-74
2023/03/19 16:31:18;;;;;;;1999.90;999.90;;;;;;;;;;4937534;29;20726;-73
2023/03/19 16:34:03;;;;;;;1999.90;999.90;;;;;;;;;;4935710;29;20855;-72
2023/03/19 16:36:48;;;;;;;1999.90;999.90;;;;;;;;;;4928782;29;20205;-73
2023/03/19 16:39:34;;;;;;;1999.90;999.90;;;;;;;;;;4918849;29;20891;-74
2023/03/19 16:42:30;;;;;;;1999.90;999.90;;;;;;;;;;4930171;29;20242;-74
2023/03/19 16:45:20;;;;;;;1999.90;999.90;;;;;;;;;;4927408;29;20584;-74
2023/03/19 16:48:08;;;;;;;1999.90;999.90;;;;;;;;;;4928077;29;20609;-74
2023/03/19 16:50:53;;;;;;;1999.90;999.90;;;;;;;;;;4921756;29;20446;-74
2023/03/19 16:53:38;;;;;;;1999.90;999.90;;;;;;;;;;4925135;29;20297;-73
2023/03/19 16:56:22;;;;;;;1999.90;999.90;;;;;;;;;;4928518;29;20630;-74
2023/03/19 16:59:12;;;;;;;1999.90;999.90;;;;;;;;;;4928100;29;20331;-74
2023/03/19 17:01:57;;;;;;;1999.90;999.90;;;;;;;;;;4928519;29;20280;-73
2023/03/19 17:04:44;;;;;;;1999.90;999.90;;;;;;;;;;4933073;29;20225;-74
2023/03/19 17:07:29;;;;;;;1999.90;999.90;;;;;;;;;;4937398;29;20296;-73
2023/03/19 17:10:14;;;;;;;1999.90;999.90;;;;;;;;;;4928849;29;20335;-73
2023/03/19 17:13:00;;;;;;;1999.90;999.90;;;;;;;;;;4935279;29;20838;-74
2023/03/19 17:15:45;;;;;;;1999.90;999.90;;;;;;;;;;4931202;29;20717;-72
2023/03/19 17:18:32;;;;;;;1999.90;999.90;;;;;;;;;;4937291;29;20257;-75
2023/03/19 17:21:20;;;;;;;1999.90;999.90;;;;;;;;;;4935583;29;20616;-75
2023/03/19 17:24:16;;;;;;;1999.90;999.90;;;;;;;;;;4933209;29;20917;-74
2023/03/19 17:27:02;;;;;;;1999.90;999.90;;;;;;;;;;4933498;29;20208;-73
2023/03/19 17:29:47;;;;;;;1999.90;999.90;;;;;;;;;;4930970;29;20608;-73
2023/03/19 17:32:32;;;;;;;1999.90;999.90;;;;;;;;;;4925418;29;20232;-73
2023/03/19 17:35:17;;;;;;;1999.90;999.90;;;;;;;;;;4933163;29;20229;-72
2023/03/19 17:38:04;;;;;;;1999.90;999.90;;;;;;;;;;4935681;29;20498;-72
2023/03/19 17:40:49;;;;;;;1999.90;999.90;;;;;;;;;;4928012;29;20376;-73
2023/03/19 17:43:34;;;;;;;1999.90;999.90;;;;;;;;;;4937004;29;20205;-73
2023/03/19 17:46:21;;;;;;;1999.90;999.90;;;;;;;;;;4933467;29;20593;-73
2023/03/19 17:49:06;;;;;;;1999.90;999.90;;;;;;;;;;4930693;29;20228;-73
2023/03/19 17:51:51;;;;;;;1999.90;999.90;;;;;;;;;;4927165;29;20324;-74
2023/03/19 17:54:38;;;;;;;1999.90;999.90;;;;;;;;;;4928300;29;20923;-74
2023/03/19 17:57:22;;;;;;;1999.90;999.90;;;;;;;;;;4936664;29;20722;-73
2023/03/19 18:00:08;;;;;;;1999.90;999.90;;;;;;;;;;4929283;29;20257;-73
2023/03/19 18:02:55;;;;;;;1999.90;999.90;;;;;;;;;;4933486;29;20341;-73
2023/03/19 18:05:40;;;;;;;1999.90;999.90;;;;;;;;;;4931834;29;20218;-73
2023/03/19 18:08:25;;;;;;;1999.90;999.90;;;;;;;;;;4936202;29;20231;-72
2023/03/19 18:11:11;;;;;;;1999.90;999.90;;;;;;;;;;4925053;29;20292;-72
2023/03/19 18:13:56;;;;;;;1999.90;999.90;;;;;;;;;;4931838;29;20208;-72
2023/03/19 18:16:41;;;;;;;1999.90;999.90;;;;;;;;;;4927150;29;20210;-72
2023/03/19 18:19:30;;;;;;;1999.90;999.90;;;;;;;;;;4955390;28;20203;-73
2023/03/19 18:22:15;;;;;;;1999.90;999.90;;;;;;;;;;4954712;28;20406;-73
2023/03/19 18:25:00;;;;;;;1999.90;999.90;;;;;;;;;;4955567;29;20213;-72
2023/03/19 18:27:47;;;;;;;1999.90;999.90;;;;;;;;;;4955421;28;20210;-73
2023/03/19 18:30:33;;;;;;;1999.90;999.90;;;;;;;;;;4936863;29;20802;-73
2023/03/19 18:33:22;;;;;;;1999.90;999.90;;;;;;;;;;4936166;29;20242;-73
2023/03/19 18:36:08;;;;;;;1999.90;999.90;;;;;;;;;;4932517;29;20212;-73
2023/03/19 18:38:53;;;;;;;1999.90;999.90;;;;;;;;;;4932623;29;20204;-74
2023/03/19 18:41:39;;;;;;;1999.90;999.90;;;;;;;;;;4917161;29;20345;-73
2023/03/19 18:44:25;;;;;;;1999.90;999.90;;;;;;;;;;4948634;29;20710;-74
2023/03/19 18:47:12;;;;;;;1999.90;999.90;;;;;;;;;;4953575;29;20208;-75
2023/03/19 18:49:57;;;;;;;1999.90;999.90;;;;;;;;;;4931880;29;20455;-74
2023/03/19 18:52:42;;;;;;;1999.90;999.90;;;;;;;;;;4942488;29;20904;-73
2023/03/19 18:55:29;;;;;;;1999.90;999.90;;;;;;;;;;4925645;29;20213;-73
2023/03/19 18:58:16;;;;;;;1999.90;999.90;;;;;;;;;;4932288;29;20226;-73
2023/03/19 19:01:03;;;;;;;1999.90;999.90;;;;;;;;;;4930264;29;20323;-73
2023/03/19 19:03:48;;;;;;;1999.90;999.90;;;;;;;;;;4927882;29;20445;-74
2023/03/19 19:06:33;;;;;;;1999.90;999.90;;;;;;;;;;4931354;29;20221;-73
2023/03/19 19:09:18;;;;;;;1999.90;999.90;;;;;;;;;;4926002;29;20247;-73
2023/03/19 19:12:04;;;;;;;1999.90;999.90;;;;;;;;;;4933095;29;20310;-74
2023/03/19 19:14:48;;;;;;;1999.90;999.90;;;;;;;;;;4931153;29;20213;-74
2023/03/19 19:17:34;;;;;;;1999.90;999.90;;;;;;;;;;4932478;29;20209;-74
2023/03/19 19:20:20;;;;;;;1999.90;999.90;;;;;;;;;;4930289;29;20244;-70
2023/03/19 19:23:05;;;;;;;1999.90;999.90;;;;;;;;;;4931823;29;20209;-74
2023/03/19 19:25:50;;;;;;;1999.90;999.90;;;;;;;;;;4931604;29;20219;-73
2023/03/19 19:28:37;;;;;;;1999.90;999.90;;;;;;;;;;4928580;29;20221;-73
2023/03/19 19:31:24;;;;;;;1999.90;999.90;;;;;;;;;;4930926;29;20233;-73
2023/03/19 19:34:12;;;;;;;1999.90;999.90;;;;;;;;;;4928154;29;20509;-74
2023/03/19 19:36:59;;;;;;;1999.90;999.90;;;;;;;;;;4932355;29;20784;-74
2023/03/19 19:39:44;;;;;;;1999.90;999.90;;;;;;;;;;4925444;29;20288;-74
2023/03/19 19:42:29;;;;;;;1999.90;999.90;;;;;;;;;;4932493;29;20231;-74
2023/03/19 19:45:21;;;;;;;1999.90;999.90;;;;;;;;;;4928731;29;20222;-74
2023/03/19 19:48:07;;;;;;;1999.90;999.90;;;;;;;;;;4929626;29;20482;-73
2023/03/19 19:50:54;;;;;;;1999.90;999.90;;;;;;;;;;4923851;29;20234;-74
2023/03/19 19:53:39;;;;;;;1999.90;999.90;;;;;;;;;;4932421;29;20367;-74
2023/03/19 19:56:25;;;;;;;1999.90;999.90;;;;;;;;;;4926941;29;20219;-73
2023/03/19 19:59:13;;;;;;;1999.90;999.90;;;;;;;;;;4927165;29;20222;-74
2023/03/19 20:01:58;;;;;;;1999.90;999.90;;;;;;;;;;4924170;29;20746;-74
2023/03/19 20:04:43;;;;;;;1999.90;999.90;;;;;;;;;;4919023;29;20579;-73
2023/03/19 20:07:30;;;;;;;1999.90;999.90;;;;;;;;;;4926125;29;20217;-74
2023/03/19 20:10:15;;;;;;;1999.90;999.90;;;;;;;;;;4932529;29;20612;-74
2023/03/19 20:13:00;;;;;;;1999.90;999.90;;;;;;;;;;4915670;29;20218;-74
2023/03/19 20:15:45;;;;;;;1999.90;999.90;;;;;;;;;;4927941;29;20451;-75
2023/03/19 20:18:34;;;;;;;1999.90;999.90;;;;;;;;;;4933150;29;20216;-74
2023/03/19 20:21:19;;;;;;;1999.90;999.90;;;;;;;;;;4934382;29;20235;-74
2023/03/19 20:24:06;;;;;;;1999.90;999.90;;;;;;;;;;4932540;29;20218;-74
2023/03/19 20:26:51;;;;;;;1999.90;999.90;;;;;;;;;;4925349;29;20221;-74
2023/03/19 20:29:37;;;;;;;1999.90;999.90;;;;;;;;;;4930462;29;20519;-74
2023/03/19 20:32:26;;;;;;;1999.90;999.90;;;;;;;;;;4932225;29;20299;-74
2023/03/19 20:35:15;;;;;;;1999.90;999.90;;;;;;;;;;4932628;29;20752;-74